Time;durP1;ratioP1;P1;durP2;ratioP2;P2;SDS_P1;SDS_P2;PMS_P1;PMS_P2;Temp;Humidity;BMP_temperature;BMP_pressure;BME280_temperature;BME280_humidity;BME280_pressure;Samples;Min_cycle;Max_cycle;Signal;HPM_P1;HPM_P2
2021/12/24 00:00:20;;;;;;;50.80;46.00;;;;;;;-1.92;76.22;96638.16;106303;1317;22591;-62
2021/12/24 00:03:05;;;;;;;47.20;42.60;;;;;;;-1.91;77.23;96625.71;106294;1321;22583;-61
2021/12/24 00:05:34;;;;;;;43.60;39.00;;;;;;;-1.88;77.18;96625.42;106217;1318;22512;-61
2021/12/24 00:08:04;;;;;;;31.10;27.80;;;;;;;-1.82;78.37;96614.76;106219;1323;22521;-61
2021/12/24 00:10:33;;;;;;;31.00;28.10;;;;;;;-1.73;79.00;96610.09;106307;1322;23413;-61
2021/12/24 00:13:06;;;;;;;28.60;25.80;;;;;;;-1.66;80.46;96615.20;106289;1321;22658;-62
2021/12/24 00:18:36;;;;;;;24.40;22.20;;;;;;;-1.51;81.32;96610.63;106281;1322;22476;-62
2021/12/24 00:38:04;;;;;;;27.10;24.40;;;;;;;-1.16;82.90;96585.44;105689;1324;22994;-61
2021/12/24 00:40:41;;;;;;;23.60;21.50;;;;;;;-1.18;81.35;96568.73;106335;1323;22469;-62
2021/12/24 00:43:12;;;;;;;29.50;26.80;;;;;;;-1.17;82.40;96553.40;106356;1323;23461;-61
2021/12/24 00:45:49;;;;;;;25.80;23.50;;;;;;;-1.16;82.19;96545.95;106334;1323;22567;-62
2021/12/24 00:48:28;;;;;;;25.20;22.90;;;;;;;-1.18;82.64;96548.64;106319;1323;22525;-61
2021/12/24 00:56:03;;;;;;;27.90;25.50;;;;;;;-1.12;81.60;96537.52;106234;1323;23130;-61
2021/12/24 00:58:31;;;;;;;28.20;25.60;;;;;;;-1.09;81.67;96533.92;106311;1323;22432;-61
2021/12/24 01:00:59;;;;;;;27.00;24.60;;;;;;;-1.09;81.95;96533.13;106306;1323;22417;-61
2021/12/24 01:03:28;;;;;;;28.80;26.20;;;;;;;-1.12;81.94;96520.17;106260;1323;22416;-61
2021/12/24 01:05:58;;;;;;;30.50;27.80;;;;;;;-1.07;81.47;96517.17;106303;1323;22567;-61
2021/12/24 01:08:26;;;;;;;26.40;24.20;;;;;;;-1.04;81.47;96513.23;106239;1323;22285;-61
2021/12/24 01:11:01;;;;;;;24.90;22.70;;;;;;;-1.00;82.09;96515.20;106240;1323;23035;-61
2021/12/24 01:13:30;;;;;;;27.40;25.10;;;;;;;-0.97;81.95;96517.38;106292;1323;22403;-61
2021/12/24 01:16:06;;;;;;;27.10;24.90;;;;;;;-0.97;82.18;96508.96;106261;1321;22479;-62
2021/12/24 01:18:46;;;;;;;24.00;22.10;;;;;;;-0.97;82.32;96502.77;106262;1323;22481;-61
2021/12/24 01:21:46;;;;;;;22.90;20.90;;;;;;;-0.96;82.71;96500.73;106101;1323;23164;-62
2021/12/24 01:24:18;;;;;;;25.60;23.40;;;;;;;-0.93;82.85;96490.16;106323;1323;22470;-59
2021/12/24 01:27:03;;;;;;;23.80;21.70;;;;;;;-0.91;83.65;96492.40;106097;1323;22569;-60
2021/12/24 01:37:56;;;;;;;21.30;19.40;;;;;;;-0.91;84.26;96469.66;106318;1323;23253;-60
2021/12/24 01:40:39;;;;;;;22.60;20.70;;;;;;;-0.88;83.67;96464.58;106246;1323;22862;-61
2021/12/24 01:43:08;;;;;;;22.80;20.80;;;;;;;-0.87;84.86;96460.23;106296;1323;22458;-61
2021/12/24 01:45:37;;;;;;;22.40;20.40;;;;;;;-0.88;83.81;96461.25;106295;1323;22360;-61
2021/12/24 01:48:09;;;;;;;21.30;19.40;;;;;;;-0.87;83.51;96457.29;106266;1323;22311;-60
2021/12/24 01:50:42;;;;;;;22.10;20.10;;;;;;;-0.85;84.25;96449.52;105933;1323;379877;-61
2021/12/24 01:53:11;;;;;;;21.70;19.90;;;;;;;-0.81;83.45;96445.88;106255;1323;23013;-61
2021/12/24 01:55:42;;;;;;;24.00;22.00;;;;;;;-0.79;83.65;96438.21;106268;1323;22599;-61
2021/12/24 01:58:11;;;;;;;26.00;23.90;;;;;;;-0.79;83.62;96443.87;106235;1323;22463;-60
2021/12/24 02:00:44;;;;;;;22.60;20.70;;;;;;;-0.81;84.45;96439.96;106271;1323;23229;-60
2021/12/24 02:03:13;;;;;;;20.90;19.00;;;;;;;-0.81;84.03;96437.73;106081;1322;22452;-61
2021/12/24 02:05:43;;;;;;;19.00;17.30;;;;;;;-0.78;83.64;96444.10;106135;1323;138754;-59
2021/12/24 02:08:13;;;;;;;19.10;17.40;;;;;;;-0.75;83.73;96432.78;106258;1322;22606;-61
2021/12/24 02:10:41;;;;;;;17.90;16.20;;;;;;;-0.73;84.64;96417.58;106274;1315;22603;-61
2021/12/24 02:13:13;;;;;;;20.60;18.80;;;;;;;-0.74;84.62;96416.91;106091;1315;22507;-59
2021/12/24 02:18:42;;;;;;;18.90;17.30;;;;;;;-0.78;84.92;96422.08;106275;1323;23155;-61
2021/12/24 02:29:27;;;;;;;19.80;18.10;;;;;;;-0.70;84.76;96394.64;106212;1323;22542;-61
2021/12/24 02:31:55;;;;;;;18.00;16.40;;;;;;;-0.68;84.87;96389.88;106307;1321;22298;-60
2021/12/24 02:34:25;;;;;;;16.90;15.30;;;;;;;-0.64;85.68;96392.36;106231;1316;22856;-61
2021/12/24 02:36:54;;;;;;;17.30;15.70;;;;;;;-0.60;85.38;96385.55;106142;1317;138327;-61
2021/12/24 02:39:25;;;;;;;16.50;15.20;;;;;;;-0.58;85.44;96381.32;106293;1316;22516;-61
2021/12/24 02:41:54;;;;;;;15.20;14.00;;;;;;;-0.58;85.95;96379.42;106178;1318;23087;-61
2021/12/24 02:44:23;;;;;;;16.90;15.50;;;;;;;-0.57;85.59;96378.25;106302;1315;22478;-62
2021/12/24 02:55:14;;;;;;;16.20;14.70;;;;;;;-0.49;86.72;96361.46;106315;1318;22502;-62
2021/12/24 02:57:44;;;;;;;14.30;13.00;;;;;;;-0.49;86.57;96371.89;106147;1320;23273;-63
2021/12/24 03:00:19;;;;;;;15.40;14.00;;;;;;;-0.45;86.47;96357.61;106114;1324;22623;-62
2021/12/24 03:02:48;;;;;;;16.20;14.70;;;;;;;-0.42;87.19;96368.88;106174;1323;22451;-63
2021/12/24 03:05:18;;;;;;;18.20;16.50;;;;;;;-0.41;87.48;96370.78;106283;1323;22444;-62
2021/12/24 03:07:47;;;;;;;16.80;15.30;;;;;;;-0.42;86.99;96366.88;106299;1323;22446;-61
2021/12/24 03:10:18;;;;;;;14.70;13.30;;;;;;;-0.42;87.66;96358.08;106297;1322;23300;-62
2021/12/24 03:12:48;;;;;;;15.40;14.00;;;;;;;-0.39;87.62;96350.09;106264;1323;22546;-62
2021/12/24 03:15:20;;;;;;;15.10;13.80;;;;;;;-0.37;87.86;96355.11;106300;1323;23032;-62
2021/12/24 03:17:53;;;;;;;15.60;14.10;;;;;;;-0.35;87.78;96346.69;106250;1323;22903;-62
2021/12/24 03:20:23;;;;;;;16.50;14.80;;;;;;;-0.35;87.55;96350.20;106230;1323;23404;-61
2021/12/24 03:25:31;;;;;;;16.30;14.60;;;;;;;-0.32;88.21;96342.36;106332;1322;22451;-63
2021/12/24 03:27:59;;;;;;;17.40;15.80;;;;;;;-0.29;87.81;96341.08;106296;1323;22401;-63
2021/12/24 03:30:28;;;;;;;20.10;18.10;;;;;;;-0.28;87.24;96344.88;106242;1323;23263;-63
2021/12/24 03:32:57;;;;;;;18.40;16.60;;;;;;;-0.27;86.98;96334.98;106319;1323;22428;-63
2021/12/24 03:35:25;;;;;;;15.80;14.40;;;;;;;-0.26;87.46;96329.75;106244;1323;22394;-63
2021/12/24 03:37:54;;;;;;;16.10;14.60;;;;;;;-0.25;87.74;96323.17;106244;1323;22435;-63
2021/12/24 03:40:22;;;;;;;17.00;15.40;;;;;;;-0.23;88.20;96329.84;106299;1323;23096;-63
2021/12/24 03:42:51;;;;;;;17.90;16.10;;;;;;;-0.21;87.63;96332.43;106249;1323;22413;-63
2021/12/24 03:45:25;;;;;;;17.60;15.90;;;;;;;-0.21;87.79;96334.29;106332;1323;22500;-63
2021/12/24 03:47:59;;;;;;;16.70;15.20;;;;;;;-0.20;87.56;96328.23;106312;1315;22396;-63
2021/12/24 03:50:43;;;;;;;17.20;15.60;;;;;;;-0.17;88.09;96329.04;106290;1323;22498;-62
2021/12/24 03:55:58;;;;;;;22.00;19.90;;;;;;;-0.15;87.70;96312.77;106280;1322;22568;-63
2021/12/24 03:58:28;;;;;;;18.70;17.00;;;;;;;-0.16;88.19;96306.22;106236;1323;23287;-64
2021/12/24 04:01:15;;;;;;;17.60;16.00;;;;;;;-0.14;87.62;96309.81;106330;1322;22380;-64
2021/12/24 04:04:21;;;;;;;17.80;16.30;;;;;;;-0.11;88.33;96304.77;106299;1323;22427;-65
2021/12/24 04:07:10;;;;;;;19.50;17.80;;;;;;;-0.08;87.92;96301.96;106121;1323;22440;-68
2021/12/24 04:13:21;;;;;;;18.20;16.50;;;;;;;-0.06;88.20;96306.08;106255;1323;22478;-71
2021/12/24 04:16:06;;;;;;;18.50;16.90;;;;;;;-0.04;88.77;96301.67;106313;1323;22372;-66
2021/12/24 04:26:47;;;;;;;17.60;16.10;;;;;;;-0.02;88.77;96298.60;106317;1323;22589;-60
2021/12/24 04:29:15;;;;;;;19.50;17.90;;;;;;;0.00;88.84;96307.87;106304;1323;23314;-61
2021/12/24 04:31:53;;;;;;;18.60;17.00;;;;;;;0.00;88.56;96294.94;106277;1323;22504;-62
2021/12/24 04:34:51;;;;;;;19.50;17.80;;;;;;;0.02;88.82;96291.17;106228;1323;22139;-62
2021/12/24 04:51:21;;;;;;;21.30;19.30;;;;;;;0.05;89.93;96281.69;106261;1323;23336;-63
2021/12/24 05:02:45;;;;;;;20.20;18.50;;;;;;;0.08;89.39;96270.23;106264;1323;23477;-63
2021/12/24 05:05:26;;;;;;;21.20;19.20;;;;;;;0.09;89.13;96274.48;106246;1323;22292;-62
2021/12/24 05:08:18;;;;;;;22.10;20.10;;;;;;;0.08;89.46;96281.35;106182;1323;22616;-62
2021/12/24 05:10:47;;;;;;;20.20;18.20;;;;;;;0.06;89.66;96276.54;106310;1323;22507;-62
2021/12/24 05:13:17;;;;;;;20.20;18.40;;;;;;;0.07;89.96;96280.41;106250;1323;22385;-62
2021/12/24 05:16:22;;;;;;;21.40;19.50;;;;;;;0.09;90.02;96287.29;106260;1323;22568;-61
2021/12/24 05:22:10;;;;;;;23.80;21.70;;;;;;;0.08;90.29;96272.25;106278;1323;22589;-61
2021/12/24 05:24:39;;;;;;;23.10;21.10;;;;;;;0.09;90.16;96272.50;106239;1323;22309;-61
2021/12/24 05:27:07;;;;;;;23.00;20.80;;;;;;;0.12;90.12;96272.44;106305;1323;22438;-61
2021/12/24 05:29:35;;;;;;;22.50;20.50;;;;;;;0.14;89.40;96260.30;106220;1324;22483;-61
2021/12/24 05:32:05;;;;;;;25.40;23.10;;;;;;;0.18;89.65;96261.56;106236;1323;22451;-59
2021/12/24 05:34:34;;;;;;;25.30;23.10;;;;;;;0.19;89.84;96259.91;106253;1323;23584;-61
2021/12/24 05:37:02;;;;;;;25.10;22.80;;;;;;;0.19;90.17;96266.80;106300;1323;22570;-61
2021/12/24 05:39:30;;;;;;;27.10;24.80;;;;;;;0.20;90.06;96263.55;106259;1323;22644;-61
2021/12/24 05:41:58;;;;;;;25.50;23.40;;;;;;;0.23;89.84;96262.00;106259;1323;23223;-61
2021/12/24 05:44:27;;;;;;;24.60;22.40;;;;;;;0.26;89.83;96258.55;106232;1323;22380;-61
2021/12/24 05:47:15;;;;;;;28.30;26.00;;;;;;;0.29;90.09;96256.63;106252;1323;22541;-61
2021/12/24 05:49:49;;;;;;;26.30;24.10;;;;;;;0.28;90.47;96258.74;106232;1324;22443;-61
2021/12/24 05:52:36;;;;;;;27.60;25.30;;;;;;;0.32;90.38;96256.77;106319;1323;23102;-61
2021/12/24 05:55:10;;;;;;;27.40;25.10;;;;;;;0.35;89.97;96258.67;105995;1323;22479;-61
2021/12/24 05:57:40;;;;;;;27.60;25.30;;;;;;;0.38;90.77;96250.70;106243;1323;22592;-60
2021/12/24 06:00:12;;;;;;;29.80;27.30;;;;;;;0.40;90.97;96253.17;106237;1323;23121;-60
2021/12/24 06:02:40;;;;;;;27.20;24.90;;;;;;;0.44;90.82;96252.05;106300;1323;23213;-60
2021/12/24 06:05:09;;;;;;;25.90;23.70;;;;;;;0.50;90.78;96248.31;106299;1323;23026;-60
2021/12/24 06:07:37;;;;;;;29.90;27.20;;;;;;;0.55;91.16;96251.60;106320;1322;23532;-59
2021/12/24 06:10:06;;;;;;;34.80;31.70;;;;;;;0.58;91.19;96256.10;106300;1323;23102;-60
2021/12/24 06:12:34;;;;;;;34.60;31.70;;;;;;;0.61;91.42;96258.30;106302;1323;23479;-60
2021/12/24 06:15:05;;;;;;;39.80;36.10;;;;;;;0.66;91.23;96254.46;106285;1323;22575;-60
2021/12/24 06:17:36;;;;;;;35.60;32.40;;;;;;;0.71;91.35;96257.67;106306;1323;22425;-60
2021/12/24 06:20:08;;;;;;;33.80;31.00;;;;;;;0.74;91.43;96260.39;106278;1323;22981;-59
2021/12/24 06:22:36;;;;;;;36.00;32.90;;;;;;;0.76;91.88;96256.03;106305;1323;22430;-59
2021/12/24 06:25:04;;;;;;;32.70;29.90;;;;;;;0.78;91.86;96259.05;106282;1323;22466;-59
2021/12/24 06:27:33;;;;;;;30.80;28.20;;;;;;;0.81;92.01;96258.86;106283;1316;22473;-62
2021/12/24 06:30:01;;;;;;;28.70;26.50;;;;;;;0.86;91.73;96263.50;106250;1323;23130;-58
2021/12/24 06:32:29;;;;;;;35.00;32.10;;;;;;;0.90;91.79;96262.94;106306;1323;22399;-59
2021/12/24 06:34:58;;;;;;;30.30;27.60;;;;;;;0.91;91.57;96268.55;106281;1323;23064;-59
2021/12/24 06:37:26;;;;;;;46.00;36.00;;;;;;;0.93;91.42;96265.52;106277;1323;22374;-60
2021/12/24 06:39:55;;;;;;;32.40;29.00;;;;;;;0.98;91.40;96260.34;106299;1323;22569;-60
2021/12/24 06:42:27;;;;;;;36.60;32.70;;;;;;;1.01;91.84;96261.37;106285;1322;23310;-59
2021/12/24 06:44:55;;;;;;;33.60;30.00;;;;;;;1.04;91.67;96263.78;106289;1323;23272;-60
2021/12/24 06:47:24;;;;;;;35.30;31.60;;;;;;;1.06;91.54;96260.37;106302;1323;22502;-60
2021/12/24 06:49:52;;;;;;;34.60;30.90;;;;;;;1.08;91.50;96262.23;106317;1323;22538;-60
2021/12/24 06:52:21;;;;;;;34.20;30.90;;;;;;;1.12;92.04;96263.08;106311;1323;22544;-60
2021/12/24 06:54:49;;;;;;;31.70;28.70;;;;;;;1.18;91.72;96263.79;106321;1323;22486;-61
2021/12/24 06:57:19;;;;;;;35.90;32.60;;;;;;;1.19;92.00;96271.35;106123;1323;22421;-60
2021/12/24 06:59:48;;;;;;;31.10;28.10;;;;;;;1.20;92.30;96277.82;106231;1323;22438;-60
2021/12/24 07:02:16;;;;;;;32.10;28.90;;;;;;;1.23;92.43;96274.71;106264;1323;22443;-60
2021/12/24 07:04:44;;;;;;;31.30;28.20;;;;;;;1.28;91.68;96274.88;106328;1323;22450;-61
2021/12/24 07:07:12;;;;;;;31.50;28.60;;;;;;;1.33;91.61;96263.70;106331;1323;22554;-61
2021/12/24 07:09:42;;;;;;;32.80;29.90;;;;;;;1.36;91.40;96259.02;106295;1323;23224;-60
2021/12/24 07:12:12;;;;;;;32.30;29.20;;;;;;;1.36;92.14;96267.77;106287;1322;22297;-61
2021/12/24 07:14:42;;;;;;;31.80;29.00;;;;;;;1.39;91.85;96262.74;106327;1323;22469;-61
2021/12/24 07:17:11;;;;;;;30.10;27.50;;;;;;;1.42;91.93;96267.23;106292;1323;22749;-60
2021/12/24 07:19:39;;;;;;;32.30;29.40;;;;;;;1.44;91.89;96267.26;106191;1322;138566;-60
2021/12/24 07:22:07;;;;;;;28.20;25.80;;;;;;;1.47;91.58;96264.95;106313;1323;22511;-60
2021/12/24 07:24:36;;;;;;;27.50;25.20;;;;;;;1.50;91.91;96273.27;106318;1323;22603;-59
2021/12/24 07:27:04;;;;;;;30.20;27.60;;;;;;;1.51;92.03;96274.25;106240;1323;22835;-60
2021/12/24 07:29:33;;;;;;;27.40;24.90;;;;;;;1.52;92.27;96279.30;106311;1323;22930;-60
2021/12/24 07:32:01;;;;;;;28.00;25.40;;;;;;;1.53;92.07;96272.16;106275;1323;22378;-60
2021/12/24 07:34:29;;;;;;;26.70;24.50;;;;;;;1.51;92.12;96268.85;106290;1323;22585;-61
2021/12/24 07:36:58;;;;;;;27.30;24.80;;;;;;;1.57;92.15;96267.20;106301;1323;22510;-58
2021/12/24 07:39:26;;;;;;;31.30;28.60;;;;;;;1.61;91.57;96265.15;106285;1321;22295;-58
2021/12/24 07:41:54;;;;;;;27.80;25.40;;;;;;;1.60;91.93;96267.86;106315;1323;22426;-59
2021/12/24 07:44:22;;;;;;;27.80;25.60;;;;;;;1.61;91.85;96259.13;106283;1323;22414;-60
2021/12/24 07:46:58;;;;;;;25.60;23.40;;;;;;;1.63;92.06;96261.30;106306;1322;22617;-59
2021/12/24 07:52:19;;;;;;;29.30;26.60;;;;;;;1.70;91.88;96266.65;106279;1323;23021;-59
2021/12/24 07:54:48;;;;;;;26.60;24.50;;;;;;;1.70;92.17;96266.44;106295;1323;22475;-60
2021/12/24 07:57:38;;;;;;;27.50;25.10;;;;;;;1.70;91.84;96261.11;106270;1323;22591;-60
2021/12/24 08:00:08;;;;;;;27.10;24.70;;;;;;;1.72;91.79;96267.00;106309;1320;22541;-60
2021/12/24 08:02:41;;;;;;;27.60;25.00;;;;;;;1.74;91.68;96269.59;106338;1322;23398;-59
2021/12/24 08:05:13;;;;;;;27.20;24.90;;;;;;;1.74;92.01;96263.41;106293;1323;22989;-59
2021/12/24 08:07:41;;;;;;;28.10;25.60;;;;;;;1.75;91.64;96251.89;106305;1323;22380;-59
2021/12/24 08:10:09;;;;;;;28.40;26.00;;;;;;;1.77;91.95;96257.28;106278;1323;22423;-60
2021/12/24 08:12:37;;;;;;;29.40;26.80;;;;;;;1.79;91.87;96248.06;106314;1323;23122;-59
2021/12/24 08:15:08;;;;;;;28.00;25.30;;;;;;;1.80;91.95;96249.02;106359;1320;23155;-59
2021/12/24 08:17:37;;;;;;;27.00;24.60;;;;;;;1.79;92.35;96252.69;106322;1319;22403;-60
2021/12/24 08:20:07;;;;;;;28.00;25.10;;;;;;;1.83;91.82;96255.79;106174;1318;139872;-60
2021/12/24 08:22:36;;;;;;;30.80;28.00;;;;;;;1.86;91.69;96256.81;106299;1318;23186;-61
2021/12/24 08:25:07;;;;;;;30.70;28.00;;;;;;;1.88;91.45;96257.10;106297;1321;22627;-60
2021/12/24 08:27:38;;;;;;;30.20;27.40;;;;;;;1.87;92.08;96262.64;106306;1315;22532;-60
2021/12/24 08:30:07;;;;;;;28.60;26.00;;;;;;;1.87;91.88;96260.05;106291;1315;22814;-61
2021/12/24 08:32:38;;;;;;;27.50;25.00;;;;;;;1.89;91.93;96255.44;106264;1315;22607;-61
2021/12/24 08:35:12;;;;;;;34.00;30.60;;;;;;;1.93;91.85;96257.52;106270;1317;22377;-61
2021/12/24 08:37:41;;;;;;;42.10;37.70;;;;;;;1.94;92.09;96258.48;106261;1323;22473;-61
2021/12/24 08:40:11;;;;;;;38.70;34.90;;;;;;;1.94;91.92;96260.80;106284;1322;22327;-60
2021/12/24 08:42:39;;;;;;;42.80;38.50;;;;;;;1.95;91.93;96267.02;106267;1323;23208;-60
2021/12/24 08:45:08;;;;;;;34.10;30.80;;;;;;;1.95;92.06;96265.97;106268;1323;23327;-61
2021/12/24 08:47:36;;;;;;;38.70;35.00;;;;;;;1.97;92.18;96263.11;106271;1324;22367;-61
2021/12/24 08:50:06;;;;;;;40.00;36.40;;;;;;;2.00;92.08;96256.43;106279;1323;22273;-61
2021/12/24 08:52:34;;;;;;;52.10;47.10;;;;;;;2.03;92.20;96235.30;106246;1323;22575;-61
2021/12/24 08:55:03;;;;;;;35.70;32.30;;;;;;;2.06;91.77;96233.64;106260;1323;22548;-61
2021/12/24 08:57:31;;;;;;;34.00;30.70;;;;;;;2.10;91.75;96235.77;106277;1323;23338;-61
2021/12/24 08:59:59;;;;;;;32.10;29.10;;;;;;;2.12;91.70;96233.65;106255;1323;22383;-60
2021/12/24 09:02:27;;;;;;;38.20;34.60;;;;;;;2.16;91.89;96231.70;106316;1323;22266;-60
2021/12/24 09:04:55;;;;;;;33.90;30.90;;;;;;;2.20;91.98;96234.34;106298;1322;22250;-61
2021/12/24 09:07:24;;;;;;;34.10;31.00;;;;;;;2.21;92.09;96237.80;106271;1323;22486;-61
2021/12/24 09:09:52;;;;;;;27.30;24.60;;;;;;;2.24;92.11;96240.84;106279;1324;22400;-61
2021/12/24 09:12:21;;;;;;;27.70;25.20;;;;;;;2.26;92.58;96246.92;106275;1323;22301;-60
2021/12/24 09:14:49;;;;;;;28.50;25.80;;;;;;;2.31;92.25;96249.68;106276;1323;22398;-61
2021/12/24 09:17:17;;;;;;;34.10;31.00;;;;;;;2.35;92.39;96245.86;106258;1324;22408;-61
2021/12/24 09:19:48;;;;;;;31.20;28.40;;;;;;;2.38;92.09;96237.68;106284;1323;22383;-61
2021/12/24 09:22:18;;;;;;;32.20;29.20;;;;;;;2.40;92.62;96238.30;106272;1323;22291;-61
2021/12/24 09:24:49;;;;;;;30.20;27.30;;;;;;;2.43;92.21;96228.19;106286;1323;22478;-61
2021/12/24 09:27:17;;;;;;;30.90;28.10;;;;;;;2.48;92.51;96224.52;106270;1323;22424;-61
2021/12/24 09:29:45;;;;;;;29.70;26.90;;;;;;;2.51;92.45;96220.17;106290;1323;22464;-61
2021/12/24 09:32:13;;;;;;;31.80;29.00;;;;;;;2.55;92.56;96219.00;106298;1323;22600;-61
2021/12/24 09:34:42;;;;;;;38.30;34.60;;;;;;;2.56;92.53;96212.92;106269;1323;22413;-63
2021/12/24 09:37:10;;;;;;;29.70;27.00;;;;;;;2.56;92.67;96215.31;106274;1323;23191;-62
2021/12/24 09:39:38;;;;;;;31.60;28.60;;;;;;;2.60;92.47;96216.90;106259;1324;22471;-62
2021/12/24 09:42:06;;;;;;;34.40;31.20;;;;;;;2.64;92.45;96213.08;106260;1323;23151;-62
2021/12/24 09:44:34;;;;;;;31.60;28.60;;;;;;;2.65;92.59;96204.77;106269;1323;22297;-62
2021/12/24 09:47:02;;;;;;;28.90;26.20;;;;;;;2.67;92.71;96209.02;106274;1324;22501;-62
2021/12/24 09:49:31;;;;;;;30.30;27.60;;;;;;;2.69;92.66;96205.81;105983;1319;212554;-62
2021/12/24 09:52:01;;;;;;;32.30;29.30;;;;;;;2.73;92.95;96198.15;106194;1324;23195;-62
2021/12/24 09:54:30;;;;;;;32.30;29.30;;;;;;;2.76;92.53;96195.34;106248;1320;22486;-61
2021/12/24 09:56:58;;;;;;;31.20;28.00;;;;;;;2.77;92.66;96198.47;106274;1323;22547;-62
2021/12/24 09:59:27;;;;;;;33.40;29.90;;;;;;;2.78;92.79;96198.88;106275;1323;22373;-62
2021/12/24 10:02:01;;;;;;;32.10;29.00;;;;;;;2.79;92.38;96195.02;106264;1323;22513;-63
2021/12/24 10:04:33;;;;;;;28.90;26.20;;;;;;;2.83;92.38;96191.95;106279;1323;22619;-62
2021/12/24 10:07:08;;;;;;;31.40;28.40;;;;;;;2.86;92.94;96196.99;106289;1323;22399;-62
2021/12/24 10:09:43;;;;;;;36.90;33.30;;;;;;;2.87;92.65;96188.24;106235;1323;22624;-63
2021/12/24 10:12:14;;;;;;;35.40;32.00;;;;;;;2.87;92.91;96190.06;106283;1320;22435;-62
2021/12/24 10:14:59;;;;;;;32.60;29.40;;;;;;;2.88;92.80;96189.78;106255;1324;23114;-63
2021/12/24 10:17:34;;;;;;;28.70;26.00;;;;;;;2.91;93.06;96189.25;106264;1323;23347;-63
2021/12/24 10:20:15;;;;;;;28.90;26.20;;;;;;;2.95;92.74;96194.38;106255;1323;22524;-61
2021/12/24 10:22:54;;;;;;;30.70;27.80;;;;;;;2.99;93.16;96192.36;106262;1323;22573;-63
2021/12/24 10:25:29;;;;;;;29.40;26.70;;;;;;;3.02;93.14;96186.98;106268;1323;22585;-61
2021/12/24 10:28:09;;;;;;;37.20;33.60;;;;;;;3.04;93.58;96180.95;106239;1323;22602;-62
2021/12/24 10:30:37;;;;;;;30.60;27.70;;;;;;;3.08;93.36;96179.18;106287;1323;22283;-62
2021/12/24 10:33:10;;;;;;;36.30;32.40;;;;;;;3.11;93.78;96175.71;106263;1323;22439;-62
2021/12/24 10:35:38;;;;;;;30.00;27.20;;;;;;;3.16;93.12;96169.40;106224;1324;22561;-62
2021/12/24 10:38:14;;;;;;;39.20;35.30;;;;;;;3.20;93.75;96160.82;106307;1324;22403;-62
2021/12/24 10:40:59;;;;;;;29.80;26.70;;;;;;;3.22;93.49;96161.68;106253;1324;23247;-62
2021/12/24 10:43:30;;;;;;;28.80;25.90;;;;;;;3.25;93.29;96165.54;106241;1323;22510;-62
2021/12/24 10:46:11;;;;;;;34.50;31.20;;;;;;;3.27;93.28;96163.02;106218;1324;22520;-63
2021/12/24 10:48:49;;;;;;;28.70;25.70;;;;;;;3.30;93.62;96160.31;106267;1323;22512;-62
2021/12/24 10:51:41;;;;;;;28.40;25.70;;;;;;;3.34;93.65;96155.66;106118;1323;138781;-62
2021/12/24 10:54:07;;;;;;;28.10;25.50;;;;;;;3.35;93.79;96150.64;106253;1323;23158;-62
2021/12/24 10:56:36;;;;;;;28.60;25.80;;;;;;;3.37;93.61;96143.64;106287;1323;22317;-62
2021/12/24 10:59:05;;;;;;;25.60;23.20;;;;;;;3.38;93.31;96151.33;106276;1318;23300;-63
2021/12/24 11:01:34;;;;;;;27.60;25.00;;;;;;;3.40;93.70;96147.71;106300;1323;22592;-63
2021/12/24 11:04:02;;;;;;;32.10;29.10;;;;;;;3.41;93.87;96146.81;106281;1323;22528;-62
2021/12/24 11:06:31;;;;;;;28.90;25.70;;;;;;;3.41;93.84;96151.48;106286;1323;23368;-62
2021/12/24 11:09:00;;;;;;;29.20;26.10;;;;;;;3.42;94.07;96156.02;106268;1323;22478;-62
2021/12/24 11:11:38;;;;;;;27.50;24.70;;;;;;;3.44;93.60;96157.88;106249;1323;22489;-62
2021/12/24 11:14:19;;;;;;;29.10;26.20;;;;;;;3.47;93.66;96165.70;106261;1323;22490;-62
2021/12/24 11:16:47;;;;;;;28.10;25.40;;;;;;;3.49;94.06;96168.65;106235;1323;22384;-62
2021/12/24 11:19:15;;;;;;;30.20;27.20;;;;;;;3.51;94.10;96159.56;106243;1324;22442;-62
2021/12/24 11:21:43;;;;;;;66.50;57.40;;;;;;;3.53;94.11;96147.81;106281;1323;22481;-62
2021/12/24 11:24:11;;;;;;;36.80;33.00;;;;;;;3.56;93.91;96141.08;106287;1323;22592;-61
2021/12/24 11:26:40;;;;;;;26.80;24.10;;;;;;;3.60;93.85;96136.95;106297;1323;22591;-62
2021/12/24 11:29:08;;;;;;;29.50;26.60;;;;;;;3.64;94.20;96119.35;106284;1323;23182;-62
2021/12/24 11:31:37;;;;;;;48.30;43.80;;;;;;;3.66;94.28;96121.02;106273;1323;22591;-62
2021/12/24 11:34:05;;;;;;;115.10;77.30;;;;;;;3.68;94.42;96120.13;106260;1323;22321;-63
2021/12/24 11:36:33;;;;;;;27.00;24.10;;;;;;;3.71;94.30;96118.36;106263;1323;22602;-64
2021/12/24 11:39:07;;;;;;;28.00;25.50;;;;;;;3.75;94.47;96120.16;106253;1323;22627;-63
2021/12/24 11:41:37;;;;;;;26.20;23.70;;;;;;;3.79;94.04;96113.78;106281;1323;22565;-63
2021/12/24 11:44:07;;;;;;;25.30;22.90;;;;;;;3.82;94.04;96108.70;106289;1323;23036;-63
2021/12/24 11:46:41;;;;;;;52.90;46.10;;;;;;;3.83;94.33;96116.67;106302;1323;23308;-64
2021/12/24 11:49:09;;;;;;;165.20;104.30;;;;;;;3.84;94.28;96112.91;106270;1323;23201;-63
2021/12/24 11:51:40;;;;;;;30.30;27.50;;;;;;;3.88;94.44;96114.17;106283;1323;23128;-63
2021/12/24 11:54:10;;;;;;;31.30;28.50;;;;;;;3.92;94.17;96106.52;106293;1323;22476;-63
2021/12/24 11:56:43;;;;;;;42.80;38.90;;;;;;;3.96;93.91;96109.01;106227;1323;22458;-63
2021/12/24 11:59:11;;;;;;;148.20;97.30;;;;;;;3.97;94.16;96107.20;106274;1323;22510;-62
2021/12/24 12:01:42;;;;;;;40.30;36.20;;;;;;;3.98;94.32;96105.11;106269;1323;22968;-64
2021/12/24 12:04:16;;;;;;;35.90;32.50;;;;;;;3.98;94.31;96100.70;106270;1323;23247;-63
2021/12/24 12:06:44;;;;;;;40.40;36.40;;;;;;;3.99;94.40;96094.80;106266;1323;22354;-62
2021/12/24 12:09:13;;;;;;;29.60;26.50;;;;;;;4.02;94.37;96094.41;106146;1323;138799;-62
2021/12/24 12:11:45;;;;;;;40.50;36.40;;;;;;;4.04;94.32;96091.43;106278;1323;23098;-63
2021/12/24 12:14:14;;;;;;;36.50;32.80;;;;;;;4.05;94.25;96098.88;106283;1323;23162;-63
2021/12/24 12:16:51;;;;;;;40.90;36.80;;;;;;;4.06;94.49;96089.32;106265;1324;23011;-63
2021/12/24 12:22:15;;;;;;;54.30;48.10;;;;;;;4.12;94.21;96079.44;106163;1323;22457;-63
2021/12/24 12:27:32;;;;;;;35.80;32.10;;;;;;;4.17;94.71;96069.55;106319;1323;22307;-63
2021/12/24 12:30:39;;;;;;;30.50;27.40;;;;;;;4.19;94.53;96067.97;106322;1323;23254;-63
2021/12/24 12:33:16;;;;;;;31.70;28.50;;;;;;;4.21;94.43;96080.83;106279;1323;23327;-63
2021/12/24 12:35:56;;;;;;;31.70;28.80;;;;;;;4.22;94.48;96089.64;106309;1323;23115;-63
2021/12/24 12:38:34;;;;;;;23.80;21.40;;;;;;;4.25;94.51;96089.84;106266;1323;22564;-62
2021/12/24 12:41:34;;;;;;;24.80;22.30;;;;;;;4.26;94.67;96081.82;106254;1324;23319;-62
2021/12/24 12:44:14;;;;;;;29.30;25.50;;;;;;;4.28;94.57;96081.72;106294;1323;23140;-63
2021/12/24 12:46:46;;;;;;;25.00;22.50;;;;;;;4.31;94.36;96077.88;106209;1324;22707;-63
2021/12/24 12:49:33;;;;;;;26.30;23.50;;;;;;;4.33;94.61;96091.11;106293;1323;22583;-62
2021/12/24 12:52:33;;;;;;;31.70;28.50;;;;;;;4.36;94.50;96084.97;106308;1323;22418;-63
2021/12/24 12:55:05;;;;;;;33.50;30.30;;;;;;;4.38;94.42;96076.63;106277;1323;23333;-64
2021/12/24 12:57:40;;;;;;;35.10;32.00;;;;;;;4.39;94.22;96079.44;106321;1324;22386;-64
2021/12/24 13:00:19;;;;;;;29.70;26.90;;;;;;;4.39;94.48;96086.98;106181;1323;138411;-64
2021/12/24 13:02:57;;;;;;;26.50;24.00;;;;;;;4.40;94.46;96083.30;106244;1324;22393;-63
2021/12/24 13:05:28;;;;;;;25.20;22.80;;;;;;;4.43;94.29;96090.45;106301;1323;22496;-64
2021/12/24 13:08:16;;;;;;;25.10;22.70;;;;;;;4.46;94.27;96096.98;106278;1323;22286;-64
2021/12/24 13:11:20;;;;;;;24.20;21.80;;;;;;;4.49;94.26;96097.71;106238;1324;23065;-63
2021/12/24 13:13:55;;;;;;;25.30;22.60;;;;;;;4.52;93.93;96105.16;106309;1323;22427;-63
2021/12/24 13:16:37;;;;;;;25.50;23.00;;;;;;;4.53;94.25;96116.35;106286;1322;22532;-71
2021/12/24 13:20:10;;;;;;;24.50;22.10;;;;;;;4.53;94.63;96109.79;106318;1314;23218;-71
2021/12/24 13:22:36;;;;;;;24.80;22.10;;;;;;;4.54;94.31;96112.65;106325;1321;22470;-73